Time;durP1;ratioP1;P1;durP2;ratioP2;P2;SDS_P1;SDS_P2;PMS_P1;PMS_P2;Temp;Humidity;BMP_temperature;BMP_pressure;BME280_temperature;BME280_humidity;BME280_pressure;Samples;Min_cycle;Max_cycle;Signal;HPM_P1;HPM_P2
2021/05/01 00:01:33;;;;;;;14.17;12.30;;;10.00;67.70;;;;;;5007649;28;20484;-48
2021/05/01 00:04:00;;;;;;;14.00;12.53;;;9.90;67.90;;;;;;5004912;28;20467;-49
2021/05/01 00:06:26;;;;;;;17.13;12.93;;;9.90;68.20;;;;;;5000969;28;20520;-49
2021/05/01 00:08:52;;;;;;;12.67;10.70;;;9.90;68.40;;;;;;5008934;28;20543;-49
2021/05/01 00:11:19;;;;;;;13.77;11.07;;;9.90;68.30;;;;;;5007239;28;20980;-49
2021/05/01 00:13:45;;;;;;;13.33;11.30;;;9.90;68.00;;;;;;5003469;28;20494;-49
2021/05/01 00:16:12;;;;;;;14.93;11.90;;;9.80;68.30;;;;;;5002587;28;20494;-49
2021/05/01 00:18:38;;;;;;;14.33;11.57;;;9.80;68.30;;;;;;5005603;28;20524;-49
2021/05/01 00:21:05;;;;;;;13.80;10.20;;;9.80;68.20;;;;;;5005219;28;20851;-49
2021/05/01 00:23:31;;;;;;;12.80;10.70;;;9.80;68.50;;;;;;5006367;28;21048;-49
2021/05/01 00:25:58;;;;;;;16.27;11.07;;;9.80;68.60;;;;;;5005816;28;20459;-49
2021/05/01 00:28:26;;;;;;;15.07;12.73;;;9.80;68.70;;;;;;5001856;28;20460;-49
2021/05/01 00:30:52;;;;;;;19.90;13.47;;;9.80;69.00;;;;;;5004403;28;20475;-49
2021/05/01 00:33:19;;;;;;;14.87;12.17;;;9.80;69.20;;;;;;5005949;28;20456;-49
2021/05/01 00:35:45;;;;;;;15.63;12.17;;;9.80;69.10;;;;;;5001628;28;20559;-49
2021/05/01 00:38:11;;;;;;;14.47;12.93;;;9.80;68.90;;;;;;5001754;28;20808;-48
2021/05/01 00:40:38;;;;;;;15.23;11.80;;;9.80;68.50;;;;;;5003928;28;20480;-48
2021/05/01 00:43:04;;;;;;;13.73;11.40;;;9.80;68.30;;;;;;5006198;28;20461;-48
2021/05/01 00:45:31;;;;;;;14.10;11.10;;;9.80;68.30;;;;;;5005821;28;20464;-48
2021/05/01 00:47:57;;;;;;;12.63;11.03;;;9.80;68.40;;;;;;5006172;28;20845;-48
2021/05/01 00:50:23;;;;;;;15.17;12.17;;;9.80;68.30;;;;;;5018164;28;20466;-48
2021/05/01 00:52:52;;;;;;;15.40;11.27;;;9.80;68.00;;;;;;5003200;28;20611;-48
2021/05/01 00:55:39;;;;;;;13.57;11.47;;;9.80;68.20;;;;;;5002114;28;20863;-48
2021/05/01 00:58:05;;;;;;;17.10;11.50;;;9.80;68.50;;;;;;5005733;28;20471;-48
2021/05/01 01:00:46;;;;;;;12.17;10.53;;;9.80;68.20;;;;;;5011000;28;21129;-48
2021/05/01 01:03:13;;;;;;;12.83;10.40;;;9.70;68.10;;;;;;5005879;28;20466;-48
2021/05/01 01:05:41;;;;;;;12.70;11.07;;;9.70;68.00;;;;;;5026012;28;20505;-48
2021/05/01 01:08:08;;;;;;;14.07;11.23;;;9.70;68.40;;;;;;5007480;28;20476;-48
2021/05/01 01:10:35;;;;;;;13.90;11.63;;;9.70;68.80;;;;;;5011235;28;20464;-48
2021/05/01 01:13:01;;;;;;;12.30;10.43;;;9.60;68.60;;;;;;5011079;28;20460;-48
2021/05/01 01:15:32;;;;;;;12.43;10.13;;;9.60;69.00;;;;;;5002346;28;20487;-48
2021/05/01 01:17:59;;;;;;;13.87;11.77;;;9.60;69.30;;;;;;5008233;28;20963;-48
2021/05/01 01:20:26;;;;;;;14.40;10.87;;;9.50;69.60;;;;;;5022608;28;20484;-48
2021/05/01 01:22:53;;;;;;;15.47;10.97;;;9.50;69.70;;;;;;5006439;28;20460;-48
2021/05/01 01:25:20;;;;;;;18.13;12.60;;;9.50;69.70;;;;;;5004842;28;20456;-48
2021/05/01 01:27:47;;;;;;;14.27;10.93;;;9.50;69.80;;;;;;5010306;28;20447;-48
2021/05/01 01:30:15;;;;;;;14.40;11.60;;;9.40;69.80;;;;;;5007521;28;20461;-48
2021/05/01 01:32:42;;;;;;;12.40;11.10;;;9.40;69.90;;;;;;5013850;28;20474;-48
2021/05/01 01:35:12;;;;;;;14.00;11.07;;;9.40;69.90;;;;;;5006285;28;20464;-48
2021/05/01 01:37:44;;;;;;;13.23;11.63;;;9.40;69.80;;;;;;5007179;28;20457;-48
2021/05/01 01:40:11;;;;;;;15.30;11.47;;;9.30;70.00;;;;;;5009093;28;20495;-48
2021/05/01 01:42:38;;;;;;;13.80;12.10;;;9.30;70.40;;;;;;5007033;28;20460;-48
2021/05/01 01:45:05;;;;;;;11.83;10.03;;;9.30;70.50;;;;;;5011186;28;20460;-48
2021/05/01 01:47:31;;;;;;;12.77;10.80;;;9.20;70.30;;;;;;5005457;28;20569;-48
2021/05/01 01:49:58;;;;;;;14.53;11.53;;;9.20;70.40;;;;;;5007271;28;20546;-48
2021/05/01 01:52:24;;;;;;;15.40;11.43;;;9.10;70.60;;;;;;5006665;28;20464;-48
2021/05/01 01:54:50;;;;;;;16.07;11.63;;;9.10;70.90;;;;;;5007777;28;20460;-48
2021/05/01 01:57:16;;;;;;;16.53;12.70;;;9.00;71.20;;;;;;5007847;28;20457;-48
2021/05/01 01:59:43;;;;;;;13.60;11.40;;;9.00;71.30;;;;;;5010634;28;20567;-48
2021/05/01 02:02:10;;;;;;;13.20;10.70;;;9.00;71.60;;;;;;5008386;28;20488;-48
2021/05/01 02:04:36;;;;;;;12.67;10.90;;;8.90;71.60;;;;;;5009850;28;20459;-48
2021/05/01 02:07:03;;;;;;;18.00;11.37;;;8.90;71.80;;;;;;5005432;28;20463;-49
2021/05/01 02:09:31;;;;;;;13.27;11.50;;;8.90;72.10;;;;;;5006704;28;20464;-49
2021/05/01 02:11:57;;;;;;;13.07;11.33;;;8.80;72.20;;;;;;5005283;28;20547;-49
2021/05/01 02:14:23;;;;;;;13.63;12.13;;;8.80;72.20;;;;;;5009066;28;20467;-49
2021/05/01 02:16:49;;;;;;;13.53;11.90;;;8.80;72.10;;;;;;5009423;28;20480;-48
2021/05/01 02:19:16;;;;;;;16.13;11.67;;;8.70;72.20;;;;;;5004619;28;20459;-48
2021/05/01 02:21:42;;;;;;;14.80;11.40;;;8.70;72.30;;;;;;5006030;28;20499;-48
2021/05/01 02:24:09;;;;;;;15.10;11.23;;;8.70;72.30;;;;;;5006777;28;20472;-48
2021/05/01 02:26:35;;;;;;;12.37;10.93;;;8.60;72.30;;;;;;5009277;28;20460;-48
2021/05/01 02:29:01;;;;;;;14.53;11.90;;;8.60;72.40;;;;;;5007711;28;21088;-48
2021/05/01 02:31:27;;;;;;;15.93;11.07;;;8.50;72.60;;;;;;5017171;28;21026;-48
2021/05/01 02:33:54;;;;;;;11.43;9.97;;;8.50;72.60;;;;;;5006476;28;20801;-48
2021/05/01 02:36:20;;;;;;;12.23;11.03;;;8.40;72.70;;;;;;5001482;28;20460;-48
2021/05/01 02:38:46;;;;;;;15.10;10.40;;;8.40;72.80;;;;;;4988560;28;20461;-48
2021/05/01 02:41:12;;;;;;;11.10;9.00;;;8.30;72.80;;;;;;5008270;28;20848;-48
2021/05/01 02:43:38;;;;;;;12.30;10.43;;;8.30;72.80;;;;;;5007941;28;20460;-48
2021/05/01 02:46:05;;;;;;;12.67;11.27;;;8.30;72.50;;;;;;5007539;28;20462;-48
2021/05/01 02:48:32;;;;;;;12.77;9.33;;;8.30;72.50;;;;;;5005079;28;20923;-48
2021/05/01 02:50:59;;;;;;;10.57;9.47;;;8.20;72.30;;;;;;5006877;28;20456;-48
2021/05/01 02:53:25;;;;;;;14.20;9.50;;;8.20;72.40;;;;;;5004970;28;20559;-48
2021/05/01 02:55:51;;;;;;;12.63;8.87;;;8.20;72.40;;;;;;5004916;28;20685;-47
2021/05/01 02:58:18;;;;;;;12.03;10.13;;;8.10;72.40;;;;;;5008278;28;20455;-45
2021/05/01 03:00:44;;;;;;;12.47;10.40;;;8.10;72.50;;;;;;5004813;28;20498;-46
2021/05/01 03:03:10;;;;;;;12.80;10.33;;;8.00;72.60;;;;;;4990828;28;20448;-46
2021/05/01 03:05:36;;;;;;;13.10;10.17;;;7.90;72.70;;;;;;5008087;28;20554;-46
2021/05/01 03:08:03;;;;;;;12.10;10.20;;;7.90;72.70;;;;;;5008488;28;21071;-46
2021/05/01 03:10:30;;;;;;;12.00;10.10;;;7.90;72.90;;;;;;5007526;28;20814;-46
2021/05/01 03:12:56;;;;;;;14.40;10.80;;;7.80;73.00;;;;;;5005488;28;20472;-46
2021/05/01 03:15:25;;;;;;;12.90;10.47;;;7.80;73.10;;;;;;5008611;28;20683;-46
2021/05/01 03:17:52;;;;;;;14.90;10.67;;;7.80;73.30;;;;;;5006319;28;20470;-46
2021/05/01 03:20:20;;;;;;;13.40;10.40;;;7.70;73.40;;;;;;5004220;28;20488;-46
2021/05/01 03:22:47;;;;;;;12.67;10.17;;;7.70;73.50;;;;;;5005169;28;20470;-46
2021/05/01 03:25:16;;;;;;;15.63;10.87;;;7.70;73.60;;;;;;5003606;28;20547;-46
2021/05/01 03:27:43;;;;;;;13.83;10.60;;;7.70;73.50;;;;;;5005515;28;20460;-46
2021/05/01 03:30:12;;;;;;;13.60;10.47;;;7.60;73.50;;;;;;5006191;28;20458;-46
2021/05/01 03:32:40;;;;;;;13.70;9.90;;;7.60;73.50;;;;;;5007113;28;20463;-46
2021/05/01 03:35:08;;;;;;;14.40;10.80;;;7.60;73.50;;;;;;5002585;28;20800;-46
2021/05/01 03:37:37;;;;;;;13.97;10.97;;;7.60;73.40;;;;;;5000660;28;20955;-45
2021/05/01 03:40:05;;;;;;;18.47;11.50;;;7.50;73.40;;;;;;5002914;28;20461;-46
2021/05/01 03:42:32;;;;;;;17.43;11.30;;;7.50;73.70;;;;;;5008437;28;20457;-46
2021/05/01 03:44:58;;;;;;;16.17;10.77;;;7.50;74.00;;;;;;5006318;28;20478;-46
2021/05/01 03:47:24;;;;;;;15.33;11.10;;;7.50;74.20;;;;;;5002437;28;20556;-46
2021/05/01 03:49:50;;;;;;;16.93;12.63;;;7.40;74.20;;;;;;5005176;28;20492;-46
2021/05/01 03:52:17;;;;;;;15.37;11.63;;;7.40;74.20;;;;;;5004583;28;20482;-46
2021/05/01 03:54:43;;;;;;;15.03;10.53;;;7.40;74.40;;;;;;5002280;28;20490;-46
2021/05/01 03:57:09;;;;;;;13.87;10.93;;;7.40;74.40;;;;;;5005821;28;20552;-46
2021/05/01 03:59:37;;;;;;;12.80;10.90;;;7.40;74.40;;;;;;4999743;28;20464;-46
2021/05/01 04:02:04;;;;;;;11.60;10.00;;;7.40;74.60;;;;;;5004963;28;20846;-46
2021/05/01 04:04:30;;;;;;;13.27;10.37;;;7.40;74.60;;;;;;5007598;28;20472;-46
2021/05/01 04:06:56;;;;;;;14.90;11.40;;;7.40;74.60;;;;;;5002894;28;20469;-46
2021/05/01 04:09:25;;;;;;;13.83;10.57;;;7.30;74.60;;;;;;5016242;28;20983;-46
2021/05/01 04:11:51;;;;;;;16.60;10.07;;;7.30;74.70;;;;;;5001637;28;20465;-46
2021/05/01 04:14:18;;;;;;;13.87;10.53;;;7.30;74.70;;;;;;5002255;28;20466;-46
2021/05/01 04:16:44;;;;;;;13.47;10.70;;;7.30;74.80;;;;;;5005985;28;20478;-46
2021/05/01 04:19:13;;;;;;;15.37;12.50;;;7.30;74.90;;;;;;5003916;28;20488;-46
2021/05/01 04:21:39;;;;;;;13.30;10.53;;;7.30;75.00;;;;;;5004684;28;20476;-46
2021/05/01 04:24:06;;;;;;;15.80;11.40;;;7.30;75.00;;;;;;5005236;28;20480;-46
2021/05/01 04:26:33;;;;;;;14.37;11.60;;;7.30;75.00;;;;;;5003490;28;21038;-46
2021/05/01 04:29:00;;;;;;;15.93;11.40;;;7.30;75.10;;;;;;5003010;28;20964;-46
2021/05/01 04:31:26;;;;;;;16.83;10.50;;;7.20;75.20;;;;;;5003172;28;20460;-46
2021/05/01 04:33:53;;;;;;;13.97;10.70;;;7.20;75.20;;;;;;5008466;28;20940;-46
2021/05/01 04:36:20;;;;;;;15.17;11.30;;;7.20;75.20;;;;;;5005236;28;20492;-46
2021/05/01 04:38:46;;;;;;;16.60;12.80;;;7.20;75.10;;;;;;5022148;28;20456;-46
2021/05/01 04:41:15;;;;;;;15.70;11.07;;;7.20;75.20;;;;;;5003310;28;21170;-46
2021/05/01 04:43:43;;;;;;;18.17;12.90;;;7.20;75.00;;;;;;5008124;28;20449;-46
2021/05/01 04:46:14;;;;;;;14.30;10.77;;;7.20;74.90;;;;;;5007404;28;20448;-45
2021/05/01 04:48:41;;;;;;;14.07;10.67;;;7.20;74.80;;;;;;5007464;28;21048;-46
2021/05/01 04:51:07;;;;;;;11.83;10.10;;;7.20;74.80;;;;;;5010772;28;20518;-45
2021/05/01 04:53:34;;;;;;;14.83;10.10;;;7.10;74.70;;;;;;5008835;28;20868;-46
2021/05/01 04:56:00;;;;;;;14.13;9.80;;;7.20;74.60;;;;;;5007376;28;20452;-46
2021/05/01 04:58:27;;;;;;;15.67;10.60;;;7.20;74.20;;;;;;5008902;28;20555;-46
2021/05/01 05:00:53;;;;;;;15.40;10.70;;;7.20;74.10;;;;;;5022120;28;20993;-46
2021/05/01 05:03:19;;;;;;;13.57;10.07;;;7.10;74.10;;;;;;5007678;28;20511;-46
2021/05/01 05:05:46;;;;;;;12.20;10.40;;;7.10;74.20;;;;;;5004758;28;20466;-45
2021/05/01 05:08:12;;;;;;;16.27;11.57;;;7.10;74.10;;;;;;5006952;28;20456;-46
2021/05/01 05:10:38;;;;;;;14.20;11.00;;;7.10;74.30;;;;;;5005850;28;20466;-46
2021/05/01 05:13:04;;;;;;;16.70;10.37;;;7.10;74.50;;;;;;5005157;28;20464;-45
2021/05/01 05:15:30;;;;;;;15.37;11.60;;;7.10;74.80;;;;;;5007004;28;20492;-46
2021/05/01 05:17:57;;;;;;;12.77;11.07;;;7.10;75.00;;;;;;5002658;28;20469;-46
2021/05/01 05:20:23;;;;;;;14.00;11.00;;;7.10;75.30;;;;;;5005121;28;20503;-46
2021/05/01 05:22:50;;;;;;;15.23;11.30;;;7.10;75.10;;;;;;5025804;28;20456;-46
2021/05/01 05:25:17;;;;;;;14.10;11.50;;;7.20;75.20;;;;;;5010327;28;20475;-46
2021/05/01 05:27:44;;;;;;;14.50;11.43;;;7.20;75.40;;;;;;5012121;28;20459;-46
2021/05/01 05:30:11;;;;;;;16.23;13.60;;;7.30;75.30;;;;;;5012253;28;20448;-46
2021/05/01 05:32:37;;;;;;;17.33;10.60;;;7.30;75.20;;;;;;5009593;28;20460;-46
2021/05/01 05:35:04;;;;;;;14.13;11.43;;;7.30;75.20;;;;;;5009893;28;20460;-46
2021/05/01 05:37:30;;;;;;;15.00;10.57;;;7.30;75.30;;;;;;5004717;28;20542;-45
2021/05/01 05:39:57;;;;;;;19.43;11.23;;;7.30;75.20;;;;;;5002507;28;20459;-46
2021/05/01 05:42:24;;;;;;;14.97;10.90;;;7.40;75.20;;;;;;5010248;28;20484;-46
2021/05/01 05:44:51;;;;;;;18.13;13.07;;;7.50;74.90;;;;;;5009187;28;20824;-45
2021/05/01 05:47:19;;;;;;;14.87;10.97;;;7.50;74.70;;;;;;5008876;28;20508;-46
2021/05/01 05:49:46;;;;;;;15.30;11.50;;;7.50;74.90;;;;;;5011199;28;20993;-46
2021/05/01 05:52:13;;;;;;;17.27;11.00;;;7.50;74.80;;;;;;5005835;28;20539;-46
2021/05/01 05:54:39;;;;;;;13.53;11.27;;;7.50;75.00;;;;;;5008859;28;20456;-45
2021/05/01 05:57:10;;;;;;;14.07;11.47;;;7.50;75.10;;;;;;5008229;28;20464;-45
2021/05/01 05:59:39;;;;;;;14.40;11.10;;;7.60;75.00;;;;;;5008054;28;20457;-45
2021/05/01 06:02:06;;;;;;;14.60;12.03;;;7.70;75.00;;;;;;5010258;28;21112;-45
2021/05/01 06:04:44;;;;;;;12.73;11.27;;;7.90;74.50;;;;;;5009870;28;20538;-45
2021/05/01 06:07:15;;;;;;;13.53;11.57;;;8.00;74.40;;;;;;5008537;28;20451;-45
2021/05/01 06:09:42;;;;;;;14.30;11.97;;;8.00;74.20;;;;;;5011610;28;20456;-45
2021/05/01 06:12:09;;;;;;;16.10;12.30;;;8.10;74.50;;;;;;5009726;28;20453;-45
2021/05/01 06:14:43;;;;;;;15.20;12.50;;;8.10;74.80;;;;;;5011450;28;20973;-45
2021/05/01 06:17:13;;;;;;;15.20;11.33;;;8.20;75.00;;;;;;5024347;28;20475;-45
2021/05/01 06:19:41;;;;;;;16.80;11.93;;;8.30;74.80;;;;;;5007405;28;20456;-45
2021/05/01 06:22:08;;;;;;;14.77;11.50;;;8.30;74.80;;;;;;5009713;28;20484;-46
2021/05/01 06:24:35;;;;;;;12.30;10.80;;;8.40;74.70;;;;;;5008824;28;20945;-45
2021/05/01 06:27:04;;;;;;;12.17;9.63;;;8.50;74.60;;;;;;5024102;28;20488;-45
2021/05/01 06:29:31;;;;;;;16.40;12.03;;;8.60;74.00;;;;;;5009396;28;20913;-45
2021/05/01 06:31:59;;;;;;;17.07;13.77;;;8.60;74.10;;;;;;5011741;28;20452;-45
2021/05/01 06:34:26;;;;;;;15.53;12.10;;;8.70;73.90;;;;;;5010354;28;20476;-45
2021/05/01 06:36:53;;;;;;;16.67;11.53;;;8.70;73.80;;;;;;5008234;28;20475;-46
2021/05/01 06:39:19;;;;;;;16.93;12.80;;;8.80;73.60;;;;;;5005523;28;20471;-45
2021/05/01 06:41:56;;;;;;;18.63;14.60;;;8.90;73.30;;;;;;5007415;28;20484;-45
2021/05/01 06:44:50;;;;;;;16.37;12.37;;;9.00;72.90;;;;;;5008106;28;20495;-46
2021/05/01 06:47:24;;;;;;;21.67;16.07;;;9.20;72.50;;;;;;5022202;28;20456;-46
2021/05/01 06:50:01;;;;;;;23.10;15.30;;;9.30;72.10;;;;;;5005496;28;20490;-45
2021/05/01 06:52:27;;;;;;;23.60;15.73;;;9.30;71.80;;;;;;5007707;28;20465;-45
2021/05/01 06:54:54;;;;;;;25.47;17.07;;;9.50;71.40;;;;;;5008595;28;20456;-45
2021/05/01 06:57:26;;;;;;;24.20;19.20;;;9.60;71.30;;;;;;5008429;28;20463;-45
2021/05/01 06:59:58;;;;;;;27.03;18.47;;;9.70;71.20;;;;;;5006049;28;20667;-45
2021/05/01 07:02:25;;;;;;;24.23;19.47;;;9.80;71.00;;;;;;5009637;28;20492;-46
2021/05/01 07:04:54;;;;;;;28.70;19.47;;;9.90;71.20;;;;;;5009296;28;20467;-46
2021/05/01 07:07:22;;;;;;;29.97;20.37;;;10.00;71.20;;;;;;5009719;28;20840;-45
2021/05/01 07:09:48;;;;;;;43.03;22.33;;;10.10;71.10;;;;;;5005960;28;20466;-46
2021/05/01 07:12:17;;;;;;;39.37;23.77;;;10.20;70.40;;;;;;5005572;28;20467;-46
2021/05/01 07:14:44;;;;;;;32.37;23.40;;;10.30;70.20;;;;;;5007806;28;20482;-46
2021/05/01 07:17:13;;;;;;;30.73;20.60;;;10.50;69.70;;;;;;5009270;28;20905;-46
2021/05/01 07:19:42;;;;;;;32.00;22.40;;;10.70;69.40;;;;;;5006206;28;20867;-45
2021/05/01 07:22:10;;;;;;;31.80;22.73;;;10.80;69.40;;;;;;5005992;28;20484;-46
2021/05/01 07:24:37;;;;;;;41.90;25.70;;;11.00;69.10;;;;;;5004202;28;20464;-45
2021/05/01 07:27:05;;;;;;;38.40;24.63;;;11.30;67.70;;;;;;5007528;28;20461;-46
2021/05/01 07:29:39;;;;;;;38.37;24.73;;;11.50;67.40;;;;;;5006108;28;20577;-45
2021/05/01 07:32:09;;;;;;;36.73;26.13;;;11.70;67.20;;;;;;5035839;28;20462;-46
2021/05/01 07:34:36;;;;;;;35.90;25.90;;;12.00;66.50;;;;;;5006200;28;20471;-46
2021/05/01 07:37:10;;;;;;;42.43;26.50;;;12.10;65.80;;;;;;5008038;28;20468;-46
2021/05/01 07:39:39;;;;;;;41.50;29.30;;;12.30;65.40;;;;;;5007936;28;20886;-46
2021/05/01 07:42:10;;;;;;;41.33;29.00;;;12.40;64.80;;;;;;5010130;28;20546;-46
2021/05/01 07:44:39;;;;;;;43.80;28.07;;;12.50;64.30;;;;;;5006916;28;20461;-46
2021/05/01 07:47:07;;;;;;;39.77;27.77;;;12.70;63.70;;;;;;5008680;28;20547;-46
2021/05/01 07:49:36;;;;;;;45.40;29.00;;;12.70;63.70;;;;;;5006799;28;20461;-46
2021/05/01 07:52:03;;;;;;;43.90;28.83;;;12.80;63.00;;;;;;5008791;28;20470;-46
2021/05/01 07:54:32;;;;;;;42.60;30.50;;;13.00;62.80;;;;;;5007469;28;21020;-46
2021/05/01 07:57:00;;;;;;;45.47;28.83;;;13.10;62.80;;;;;;5008512;28;20979;-46
2021/05/01 07:59:26;;;;;;;46.63;29.37;;;13.30;63.10;;;;;;5007212;28;20961;-46
2021/05/01 08:01:52;;;;;;;47.57;30.07;;;13.50;62.90;;;;;;5003929;28;20824;-45
2021/05/01 08:04:18;;;;;;;46.50;29.23;;;13.60;61.30;;;;;;5007379;28;20468;-45
2021/05/01 08:06:45;;;;;;;43.80;29.40;;;13.70;61.00;;;;;;5006783;28;20540;-45
2021/05/01 08:09:11;;;;;;;45.67;30.20;;;13.80;60.80;;;;;;5007441;28;20456;-46
2021/05/01 08:11:37;;;;;;;42.70;27.87;;;13.90;60.70;;;;;;5007118;28;20460;-45
2021/05/01 08:14:04;;;;;;;41.83;28.00;;;14.00;60.10;;;;;;5021619;28;20938;-46
2021/05/01 08:16:31;;;;;;;42.37;28.03;;;14.10;60.10;;;;;;5005771;28;20891;-46
2021/05/01 08:19:00;;;;;;;38.90;28.73;;;14.20;59.80;;;;;;5006691;28;20492;-46
2021/05/01 08:21:28;;;;;;;39.53;27.60;;;14.20;58.40;;;;;;5007199;28;20492;-46
2021/05/01 08:23:57;;;;;;;39.27;28.73;;;14.20;58.40;;;;;;5005434;28;20468;-46
2021/05/01 08:26:23;;;;;;;43.47;29.77;;;14.20;58.50;;;;;;5001408;28;20453;-45
2021/05/01 08:28:50;;;;;;;41.80;27.50;;;14.20;58.60;;;;;;5022800;28;20464;-46
2021/05/01 08:31:16;;;;;;;42.87;29.90;;;14.30;58.70;;;;;;5004798;28;20465;-45
2021/05/01 08:33:42;;;;;;;39.83;28.80;;;14.30;58.50;;;;;;5005043;28;20563;-46
2021/05/01 08:36:09;;;;;;;43.60;29.17;;;14.40;58.70;;;;;;5005311;28;20457;-46
2021/05/01 08:38:36;;;;;;;40.40;28.07;;;14.40;58.50;;;;;;5008221;28;20545;-46
2021/05/01 08:41:04;;;;;;;36.13;27.33;;;14.50;58.50;;;;;;5006498;28;20484;-46
2021/05/01 08:43:31;;;;;;;43.53;27.27;;;14.50;58.40;;;;;;5006064;28;20461;-45
2021/05/01 08:45:58;;;;;;;37.70;28.80;;;14.60;57.90;;;;;;5006971;28;20520;-46
2021/05/01 08:48:26;;;;;;;41.50;27.63;;;14.70;57.70;;;;;;5006237;28;20483;-45
2021/05/01 08:51:00;;;;;;;37.30;27.50;;;14.80;58.00;;;;;;5008010;28;21001;-46
2021/05/01 08:53:28;;;;;;;35.93;26.70;;;14.90;57.50;;;;;;5005557;28;20463;-45
2021/05/01 08:55:54;;;;;;;43.20;28.90;;;15.00;58.20;;;;;;5006199;28;20465;-45
2021/05/01 08:58:20;;;;;;;36.63;26.63;;;15.10;58.10;;;;;;5005515;28;20467;-46
2021/05/01 09:00:49;;;;;;;38.93;26.23;;;15.20;56.40;;;;;;5008723;28;20444;-46
2021/05/01 09:03:19;;;;;;;37.83;25.73;;;15.30;56.30;;;;;;5004493;28;20448;-46
2021/05/01 09:05:46;;;;;;;34.33;24.60;;;15.30;56.20;;;;;;5006550;28;20464;-46
2021/05/01 09:08:13;;;;;;;33.80;24.90;;;15.30;56.10;;;;;;5008779;28;20447;-46
2021/05/01 09:10:47;;;;;;;38.30;25.10;;;15.30;55.10;;;;;;5025303;28;20929;-45
2021/05/01 09:13:24;;;;;;;34.67;24.83;;;15.30;54.20;;;;;;5007233;28;20453;-46
2021/05/01 09:16:06;;;;;;;31.23;22.77;;;15.30;54.40;;;;;;5022878;28;20843;-45
2021/05/01 09:18:45;;;;;;;40.20;24.53;;;15.30;54.00;;;;;;5009392;28;20452;-46
2021/05/01 09:21:21;;;;;;;32.97;23.60;;;15.20;54.10;;;;;;5009983;28;20576;-46
2021/05/01 09:23:48;;;;;;;36.47;22.30;;;15.20;54.50;;;;;;5011599;28;20828;-46
2021/05/01 09:26:18;;;;;;;29.70;22.50;;;15.10;54.60;;;;;;5011217;28;20443;-46
2021/05/01 09:28:48;;;;;;;31.87;23.90;;;15.10;54.60;;;;;;5004112;28;20456;-45
2021/05/01 09:31:17;;;;;;;37.77;24.40;;;15.10;54.60;;;;;;5009241;28;20448;-46
2021/05/01 09:33:49;;;;;;;31.10;22.70;;;15.00;55.00;;;;;;5023762;28;20463;-46
2021/05/01 09:36:17;;;;;;;36.43;25.20;;;15.10;54.50;;;;;;5000227;28;20924;-46
2021/05/01 09:38:49;;;;;;;36.30;25.80;;;15.10;54.60;;;;;;5010595;28;20459;-46
2021/05/01 09:41:24;;;;;;;37.43;25.20;;;15.20;54.10;;;;;;5009093;28;21028;-46
2021/05/01 09:43:58;;;;;;;40.70;26.73;;;15.10;54.60;;;;;;5013174;28;20878;-46
2021/05/01 09:46:25;;;;;;;41.70;28.30;;;15.10;55.30;;;;;;5023723;28;20450;-46
2021/05/01 09:49:13;;;;;;;36.13;26.77;;;15.10;55.60;;;;;;5009855;28;20448;-46
2021/05/01 09:51:51;;;;;;;37.10;26.10;;;15.00;55.50;;;;;;5012009;28;20449;-46
2021/05/01 09:54:24;;;;;;;41.50;26.70;;;15.00;55.20;;;;;;5009725;28;20448;-46
2021/05/01 09:56:52;;;;;;;37.33;26.37;;;14.90;55.30;;;;;;5009298;28;20987;-46
2021/05/01 09:59:18;;;;;;;33.87;24.27;;;14.90;55.40;;;;;;5007507;28;20467;-45
2021/05/01 10:02:00;;;;;;;39.80;27.30;;;14.90;55.20;;;;;;5011706;28;20799;-46
2021/05/01 10:04:28;;;;;;;42.80;28.00;;;15.00;55.60;;;;;;5010466;28;20456;-45
2021/05/01 10:07:05;;;;;;;44.50;27.87;;;15.00;55.90;;;;;;5005300;28;20517;-46
2021/05/01 10:09:33;;;;;;;40.77;28.37;;;15.10;55.70;;;;;;5007816;28;20524;-46
2021/05/01 10:12:14;;;;;;;43.40;29.70;;;15.20;55.60;;;;;;5010484;28;20959;-46
2021/05/01 10:14:47;;;;;;;40.77;27.80;;;15.20;55.80;;;;;;5010055;28;20826;-46
2021/05/01 10:17:16;;;;;;;38.83;27.33;;;15.30;56.20;;;;;;5011876;28;20469;-45
2021/05/01 10:20:04;;;;;;;38.50;28.50;;;15.40;56.30;;;;;;5007064;28;20496;-46
2021/05/01 10:22:37;;;;;;;37.60;27.80;;;15.40;55.40;;;;;;5005872;28;20510;-46
2021/05/01 10:25:09;;;;;;;45.33;29.30;;;15.40;54.20;;;;;;5008538;28;20452;-46
2021/05/01 10:27:47;;;;;;;42.40;27.90;;;15.30;54.40;;;;;;5007404;28;20456;-45
2021/05/01 10:30:35;;;;;;;39.60;26.23;;;15.30;54.40;;;;;;5006984;28;20468;-45
2021/05/01 10:33:30;;;;;;;34.53;25.00;;;15.20;54.90;;;;;;5007114;28;20468;-45
2021/05/01 10:36:00;;;;;;;34.80;23.83;;;15.20;54.50;;;;;;5004569;28;20473;-45
2021/05/01 10:38:26;;;;;;;35.10;24.70;;;15.20;54.70;;;;;;5006817;28;20475;-46
2021/05/01 10:40:59;;;;;;;33.17;25.20;;;15.30;54.40;;;;;;5010365;28;20457;-45
2021/05/01 10:43:31;;;;;;;33.43;24.80;;;15.30;54.20;;;;;;5014348;28;20486;-46
2021/05/01 10:46:06;;;;;;;39.23;27.77;;;15.30;54.30;;;;;;5006676;28;21100;-46
2021/05/01 10:48:35;;;;;;;33.80;26.17;;;15.30;53.90;;;;;;5006792;28;21224;-45
2021/05/01 10:51:05;;;;;;;36.43;26.83;;;15.30;54.20;;;;;;5010165;28;20478;-45
2021/05/01 10:53:31;;;;;;;41.20;27.93;;;15.30;54.50;;;;;;5008553;28;20483;-46
2021/05/01 10:55:58;;;;;;;37.00;25.13;;;15.40;54.40;;;;;;5009521;28;20448;-46
2021/05/01 10:58:30;;;;;;;36.60;26.87;;;15.40;54.40;;;;;;5005208;28;20448;-46
2021/05/01 11:00:56;;;;;;;41.90;26.20;;;15.40;54.50;;;;;;5004946;28;20445;-46
2021/05/01 11:03:24;;;;;;;42.00;25.40;;;15.50;53.60;;;;;;5008330;28;20459;-46
2021/05/01 11:05:54;;;;;;;34.60;25.50;;;15.50;54.30;;;;;;5021675;28;20539;-45
2021/05/01 11:08:43;;;;;;;38.57;28.13;;;15.50;54.20;;;;;;5003987;28;20463;-46
2021/05/01 11:11:13;;;;;;;33.33;26.27;;;15.60;54.00;;;;;;5001798;28;20473;-46
2021/05/01 11:13:41;;;;;;;39.40;27.50;;;15.60;54.20;;;;;;5004807;28;20452;-46
2021/05/01 11:16:09;;;;;;;33.90;24.10;;;15.60;54.00;;;;;;5002323;28;20502;-46
2021/05/01 11:18:39;;;;;;;166.77;123.17;;;15.70;53.90;;;;;;5006951;28;20475;-46
2021/05/01 11:21:08;;;;;;;100.33;78.70;;;15.70;54.00;;;;;;5009140;28;20452;-45
2021/05/01 11:23:36;;;;;;;50.03;35.97;;;15.80;53.80;;;;;;5004359;28;20457;-45
2021/05/01 11:26:07;;;;;;;109.77;86.60;;;15.90;52.20;;;;;;5007994;28;20996;-45
2021/05/01 11:28:38;;;;;;;230.07;197.07;;;15.80;52.30;;;;;;5002639;28;21971;-45
2021/05/01 11:31:04;;;;;;;99.57;81.33;;;15.80;52.60;;;;;;5007932;28;20451;-45
2021/05/01 11:33:34;;;;;;;69.73;56.03;;;16.00;53.20;;;;;;5007705;28;20945;-45
2021/05/01 11:36:01;;;;;;;73.60;43.97;;;16.00;52.90;;;;;;5008352;28;20478;-45
2021/05/01 11:38:37;;;;;;;51.70;33.93;;;16.20;52.50;;;;;;5010022;28;20452;-45
2021/05/01 11:41:13;;;;;;;53.83;32.50;;;16.30;52.60;;;;;;5009080;28;21059;-45
2021/05/01 11:43:41;;;;;;;43.60;30.03;;;16.40;52.30;;;;;;5003578;28;20526;-45
2021/05/01 11:46:31;;;;;;;50.60;35.47;;;16.50;52.50;;;;;;5003129;28;20938;-45
2021/05/01 11:49:08;;;;;;;38.80;30.00;;;16.50;51.90;;;;;;5019599;28;20495;-45
2021/05/01 11:52:09;;;;;;;36.27;25.90;;;16.50;51.80;;;;;;5004348;28;20469;-45
2021/05/01 11:55:01;;;;;;;39.70;26.63;;;16.60;51.20;;;;;;5007206;28;20468;-45
2021/05/01 11:57:41;;;;;;;33.80;24.47;;;16.60;50.80;;;;;;5004266;28;20651;-45
2021/05/01 12:00:08;;;;;;;34.20;26.33;;;16.60;51.40;;;;;;5007937;28;20463;-45
2021/05/01 12:02:36;;;;;;;38.90;27.77;;;16.80;50.30;;;;;;5006431;28;21039;-45
2021/05/01 12:05:16;;;;;;;33.83;25.47;;;16.90;49.20;;;;;;5004924;28;20880;-45
2021/05/01 12:07:51;;;;;;;38.10;26.00;;;16.90;49.70;;;;;;5000909;28;20464;-45
2021/05/01 12:10:20;;;;;;;36.27;24.27;;;16.90;50.30;;;;;;5003471;28;20467;-45
2021/05/01 12:13:00;;;;;;;33.40;22.50;;;16.90;50.40;;;;;;5019966;28;20468;-45
2021/05/01 12:15:31;;;;;;;31.30;21.60;;;17.00;50.20;;;;;;5004403;28;20491;-45
2021/05/01 12:17:58;;;;;;;32.10;24.93;;;17.00;49.30;;;;;;5005412;28;20457;-45
2021/05/01 12:20:28;;;;;;;35.07;26.43;;;17.10;48.50;;;;;;5005677;28;20461;-45
2021/05/01 12:23:06;;;;;;;37.93;25.77;;;17.20;47.90;;;;;;5006795;28;20582;-45
2021/05/01 12:25:39;;;;;;;37.73;25.83;;;17.20;48.20;;;;;;5006430;28;20467;-45
2021/05/01 12:28:08;;;;;;;34.40;24.90;;;17.20;48.60;;;;;;5002231;28;20832;-45
2021/05/01 12:30:40;;;;;;;36.57;25.93;;;17.20;49.20;;;;;;5007803;28;20484;-45
2021/05/01 12:33:30;;;;;;;30.20;23.43;;;17.30;49.20;;;;;;5005000;28;20903;-45
2021/05/01 12:36:01;;;;;;;35.20;25.90;;;17.30;49.50;;;;;;5006888;28;20539;-45
2021/05/01 12:38:30;;;;;;;35.23;25.00;;;17.40;48.50;;;;;;5006459;28;20461;-45
2021/05/01 12:41:14;;;;;;;31.90;23.77;;;17.40;48.30;;;;;;5007725;28;20722;-45
2021/05/01 12:43:48;;;;;;;34.87;24.30;;;17.30;48.60;;;;;;5005552;28;20483;-44